sensor_id;sensor_type;location;lat;lon;timestamp;P1;durP1;ratioP1;P2;durP2;ratioP2
63110;SDS011;49201;53.426;10.300;2022-07-21T00:00:54;19.43;;;15.67;;
63110;SDS011;49201;53.426;10.300;2022-07-21T00:03:20;20.33;;;16.73;;
63110;SDS011;49201;53.426;10.300;2022-07-21T00:05:45;20.70;;;15.53;;
63110;SDS011;49201;53.426;10.300;2022-07-21T00:08:11;21.67;;;15.37;;
63110;SDS011;49201;53.426;10.300;2022-07-21T00:10:38;20.43;;;15.57;;
63110;SDS011;49201;53.426;10.300;2022-07-21T00:13:03;17.53;;;14.87;;
63110;SDS011;49201;53.426;10.300;2022-07-21T00:15:29;18.80;;;14.97;;
63110;SDS011;49201;53.426;10.300;2022-07-21T00:17:55;20.00;;;14.03;;
63110;SDS011;49201;53.426;10.300;2022-07-21T00:20:21;18.00;;;14.20;;
63110;SDS011;49201;53.426;10.300;2022-07-21T00:22:47;18.40;;;14.10;;
63110;SDS011;49201;53.426;10.300;2022-07-21T00:25:13;19.93;;;13.77;;
63110;SDS011;49201;53.426;10.300;2022-07-21T00:27:40;18.27;;;13.63;;
63110;SDS011;49201;53.426;10.300;2022-07-21T00:30:06;19.07;;;13.77;;
63110;SDS011;49201;53.426;10.300;2022-07-21T00:32:33;17.97;;;13.37;;
63110;SDS011;49201;53.426;10.300;2022-07-21T00:34:59;17.57;;;13.10;;
63110;SDS011;49201;53.426;10.300;2022-07-21T00:37:24;15.33;;;12.87;;
63110;SDS011;49201;53.426;10.300;2022-07-21T00:39:52;15.97;;;12.67;;
63110;SDS011;49201;53.426;10.300;2022-07-21T00:42:25;15.40;;;12.17;;
63110;SDS011;49201;53.426;10.300;2022-07-21T00:44:52;17.30;;;12.67;;
63110;SDS011;49201;53.426;10.300;2022-07-21T00:47:22;15.47;;;12.17;;
63110;SDS011;49201;53.426;10.300;2022-07-21T00:49:49;14.90;;;11.80;;
63110;SDS011;49201;53.426;10.300;2022-07-21T00:52:15;15.03;;;12.43;;
63110;SDS011;49201;53.426;10.300;2022-07-21T00:54:41;16.67;;;11.80;;
63110;SDS011;49201;53.426;10.300;2022-07-21T00:57:08;15.20;;;11.93;;
63110;SDS011;49201;53.426;10.300;2022-07-21T00:59:34;14.63;;;12.17;;
63110;SDS011;49201;53.426;10.300;2022-07-21T01:01:59;13.67;;;11.53;;
63110;SDS011;49201;53.426;10.300;2022-07-21T01:04:25;15.97;;;12.17;;
63110;SDS011;49201;53.426;10.300;2022-07-21T01:06:52;15.43;;;11.90;;
63110;SDS011;49201;53.426;10.300;2022-07-21T01:09:19;14.23;;;11.93;;
63110;SDS011;49201;53.426;10.300;2022-07-21T01:11:45;16.90;;;11.47;;
63110;SDS011;49201;53.426;10.300;2022-07-21T01:14:10;16.77;;;12.03;;
63110;SDS011;49201;53.426;10.300;2022-07-21T01:16:36;17.13;;;11.60;;
63110;SDS011;49201;53.426;10.300;2022-07-21T01:19:02;15.77;;;11.23;;
63110;SDS011;49201;53.426;10.300;2022-07-21T01:21:29;13.80;;;10.73;;
63110;SDS011;49201;53.426;10.300;2022-07-21T01:23:55;17.57;;;11.53;;
63110;SDS011;49201;53.426;10.300;2022-07-21T01:26:21;16.80;;;10.83;;
63110;SDS011;49201;53.426;10.300;2022-07-21T01:28:46;12.63;;;11.03;;
63110;SDS011;49201;53.426;10.300;2022-07-21T01:31:12;15.90;;;10.67;;
63110;SDS011;49201;53.426;10.300;2022-07-21T01:33:37;11.73;;;10.23;;
63110;SDS011;49201;53.426;10.300;2022-07-21T01:36:03;15.43;;;11.33;;
63110;SDS011;49201;53.426;10.300;2022-07-21T01:38:28;15.53;;;11.47;;
63110;SDS011;49201;53.426;10.300;2022-07-21T01:41:12;15.97;;;11.37;;
63110;SDS011;49201;53.426;10.300;2022-07-21T01:43:57;12.50;;;10.00;;
63110;SDS011;49201;53.426;10.300;2022-07-21T01:46:28;13.10;;;11.13;;
63110;SDS011;49201;53.426;10.300;2022-07-21T01:48:55;17.83;;;11.90;;
63110;SDS011;49201;53.426;10.300;2022-07-21T01:51:21;15.77;;;11.40;;
63110;SDS011;49201;53.426;10.300;2022-07-21T01:53:47;14.43;;;11.27;;
63110;SDS011;49201;53.426;10.300;2022-07-21T01:56:13;16.27;;;11.40;;
63110;SDS011;49201;53.426;10.300;2022-07-21T01:58:38;16.07;;;12.00;;
63110;SDS011;49201;53.426;10.300;2022-07-21T02:01:04;15.43;;;12.40;;
63110;SDS011;49201;53.426;10.300;2022-07-21T02:03:29;17.97;;;12.97;;
63110;SDS011;49201;53.426;10.300;2022-07-21T02:06:02;17.63;;;12.73;;
63110;SDS011;49201;53.426;10.300;2022-07-21T02:08:29;19.03;;;13.10;;
63110;SDS011;49201;53.426;10.300;2022-07-21T02:10:54;19.90;;;12.97;;
63110;SDS011;49201;53.426;10.300;2022-07-21T02:13:20;17.97;;;12.77;;
63110;SDS011;49201;53.426;10.300;2022-07-21T02:15:45;16.63;;;13.43;;
63110;SDS011;49201;53.426;10.300;2022-07-21T02:18:10;15.10;;;13.00;;
63110;SDS011;49201;53.426;10.300;2022-07-21T02:20:36;18.43;;;12.77;;
63110;SDS011;49201;53.426;10.300;2022-07-21T02:23:01;14.30;;;12.30;;
63110;SDS011;49201;53.426;10.300;2022-07-21T02:25:27;18.43;;;12.63;;
63110;SDS011;49201;53.426;10.300;2022-07-21T02:27:52;18.73;;;12.57;;
63110;SDS011;49201;53.426;10.300;2022-07-21T02:30:17;18.60;;;12.63;;
63110;SDS011;49201;53.426;10.300;2022-07-21T02:32:43;16.63;;;12.93;;
63110;SDS011;49201;53.426;10.300;2022-07-21T02:35:09;17.70;;;13.03;;
63110;SDS011;49201;53.426;10.300;2022-07-21T02:37:34;19.57;;;13.27;;
63110;SDS011;49201;53.426;10.300;2022-07-21T02:40:00;17.70;;;13.07;;
63110;SDS011;49201;53.426;10.300;2022-07-21T02:42:25;19.43;;;12.87;;
63110;SDS011;49201;53.426;10.300;2022-07-21T02:44:50;16.10;;;12.83;;
63110;SDS011;49201;53.426;10.300;2022-07-21T02:47:16;18.93;;;14.03;;
63110;SDS011;49201;53.426;10.300;2022-07-21T02:49:41;19.87;;;14.43;;
63110;SDS011;49201;53.426;10.300;2022-07-21T02:52:07;20.90;;;15.07;;
63110;SDS011;49201;53.426;10.300;2022-07-21T02:54:32;21.33;;;14.00;;
63110;SDS011;49201;53.426;10.300;2022-07-21T02:56:58;23.13;;;15.50;;
63110;SDS011;49201;53.426;10.300;2022-07-21T02:59:23;24.43;;;14.70;;
63110;SDS011;49201;53.426;10.300;2022-07-21T03:01:49;22.63;;;15.83;;
63110;SDS011;49201;53.426;10.300;2022-07-21T03:04:14;24.33;;;16.10;;
63110;SDS011;49201;53.426;10.300;2022-07-21T03:06:40;25.13;;;16.13;;
63110;SDS011;49201;53.426;10.300;2022-07-21T03:09:07;23.97;;;16.17;;
63110;SDS011;49201;53.426;10.300;2022-07-21T03:11:33;22.63;;;15.87;;
63110;SDS011;49201;53.426;10.300;2022-07-21T03:13:59;27.33;;;16.17;;
63110;SDS011;49201;53.426;10.300;2022-07-21T03:16:24;21.20;;;14.87;;
63110;SDS011;49201;53.426;10.300;2022-07-21T03:18:50;26.73;;;15.67;;
63110;SDS011;49201;53.426;10.300;2022-07-21T03:21:15;20.73;;;15.17;;
63110;SDS011;49201;53.426;10.300;2022-07-21T03:23:41;23.77;;;15.63;;
63110;SDS011;49201;53.426;10.300;2022-07-21T03:26:11;21.70;;;15.03;;
63110;SDS011;49201;53.426;10.300;2022-07-21T03:28:37;22.57;;;15.27;;
63110;SDS011;49201;53.426;10.300;2022-07-21T03:31:03;23.47;;;15.67;;
63110;SDS011;49201;53.426;10.300;2022-07-21T03:33:29;25.67;;;15.63;;
63110;SDS011;49201;53.426;10.300;2022-07-21T03:35:54;20.57;;;14.33;;
63110;SDS011;49201;53.426;10.300;2022-07-21T03:38:21;20.53;;;13.30;;
63110;SDS011;49201;53.426;10.300;2022-07-21T03:40:46;16.43;;;12.83;;
63110;SDS011;49201;53.426;10.300;2022-07-21T03:43:12;22.07;;;12.70;;
63110;SDS011;49201;53.426;10.300;2022-07-21T03:45:37;23.20;;;12.37;;
63110;SDS011;49201;53.426;10.300;2022-07-21T03:48:03;18.60;;;11.43;;
63110;SDS011;49201;53.426;10.300;2022-07-21T03:50:31;17.37;;;11.07;;
63110;SDS011;49201;53.426;10.300;2022-07-21T03:52:57;18.57;;;10.57;;
63110;SDS011;49201;53.426;10.300;2022-07-21T03:55:24;18.50;;;10.37;;
63110;SDS011;49201;53.426;10.300;2022-07-21T03:57:53;17.90;;;9.73;;
63110;SDS011;49201;53.426;10.300;2022-07-21T04:00:23;17.73;;;9.27;;
63110;SDS011;49201;53.426;10.300;2022-07-21T04:02:59;15.30;;;8.57;;
63110;SDS011;49201;53.426;10.300;2022-07-21T04:05:25;17.87;;;9.17;;
63110;SDS011;49201;53.426;10.300;2022-07-21T04:07:52;17.67;;;9.40;;
63110;SDS011;49201;53.426;10.300;2022-07-21T04:10:19;15.20;;;8.53;;
63110;SDS011;49201;53.426;10.300;2022-07-21T04:12:47;16.27;;;8.73;;
63110;SDS011;49201;53.426;10.300;2022-07-21T04:15:14;15.10;;;8.67;;
63110;SDS011;49201;53.426;10.300;2022-07-21T04:17:40;19.07;;;8.47;;
63110;SDS011;49201;53.426;10.300;2022-07-21T04:20:06;12.23;;;8.00;;
63110;SDS011;49201;53.426;10.300;2022-07-21T04:22:33;14.13;;;8.03;;
63110;SDS011;49201;53.426;10.300;2022-07-21T04:24:58;16.27;;;7.83;;
63110;SDS011;49201;53.426;10.300;2022-07-21T04:27:25;10.87;;;7.13;;
63110;SDS011;49201;53.426;10.300;2022-07-21T04:29:50;16.60;;;8.00;;
63110;SDS011;49201;53.426;10.300;2022-07-21T04:32:16;14.23;;;7.30;;
63110;SDS011;49201;53.426;10.300;2022-07-21T04:34:41;11.83;;;7.10;;
63110;SDS011;49201;53.426;10.300;2022-07-21T04:37:07;13.07;;;6.47;;
63110;SDS011;49201;53.426;10.300;2022-07-21T04:39:32;15.83;;;6.90;;
63110;SDS011;49201;53.426;10.300;2022-07-21T04:41:58;13.97;;;6.43;;
63110;SDS011;49201;53.426;10.300;2022-07-21T04:44:23;17.30;;;6.90;;
63110;SDS011;49201;53.426;10.300;2022-07-21T04:46:48;13.70;;;6.90;;
63110;SDS011;49201;53.426;10.300;2022-07-21T04:49:14;16.03;;;7.33;;
63110;SDS011;49201;53.426;10.300;2022-07-21T04:51:39;14.47;;;6.70;;
63110;SDS011;49201;53.426;10.300;2022-07-21T04:54:05;14.00;;;7.73;;
63110;SDS011;49201;53.426;10.300;2022-07-21T04:56:32;9.93;;;6.23;;
63110;SDS011;49201;53.426;10.300;2022-07-21T04:58:59;11.67;;;6.50;;
63110;SDS011;49201;53.426;10.300;2022-07-21T05:01:25;13.13;;;7.00;;
63110;SDS011;49201;53.426;10.300;2022-07-21T05:03:51;10.43;;;5.83;;
63110;SDS011;49201;53.426;10.300;2022-07-21T05:06:16;12.77;;;6.37;;
63110;SDS011;49201;53.426;10.300;2022-07-21T05:08:42;13.70;;;6.10;;
63110;SDS011;49201;53.426;10.300;2022-07-21T05:11:07;11.33;;;5.30;;
63110;SDS011;49201;53.426;10.300;2022-07-21T05:13:33;13.03;;;5.60;;
63110;SDS011;49201;53.426;10.300;2022-07-21T05:15:58;11.30;;;4.87;;
63110;SDS011;49201;53.426;10.300;2022-07-21T05:18:24;9.10;;;5.00;;
63110;SDS011;49201;53.426;10.300;2022-07-21T05:20:49;10.30;;;4.90;;
63110;SDS011;49201;53.426;10.300;2022-07-21T05:23:15;10.80;;;4.60;;
63110;SDS011;49201;53.426;10.300;2022-07-21T05:25:40;9.47;;;4.77;;
63110;SDS011;49201;53.426;10.300;2022-07-21T05:28:05;11.60;;;5.03;;
63110;SDS011;49201;53.426;10.300;2022-07-21T05:30:31;8.77;;;4.47;;
63110;SDS011;49201;53.426;10.300;2022-07-21T05:32:56;9.17;;;4.67;;
63110;SDS011;49201;53.426;10.300;2022-07-21T05:35:22;10.60;;;4.73;;
63110;SDS011;49201;53.426;10.300;2022-07-21T05:37:47;11.70;;;5.17;;
63110;SDS011;49201;53.426;10.300;2022-07-21T05:40:13;7.70;;;4.57;;
63110;SDS011;49201;53.426;10.300;2022-07-21T05:42:39;9.17;;;4.30;;
63110;SDS011;49201;53.426;10.300;2022-07-21T05:45:05;10.07;;;4.30;;
63110;SDS011;49201;53.426;10.300;2022-07-21T05:47:31;8.20;;;4.50;;
63110;SDS011;49201;53.426;10.300;2022-07-21T05:49:57;10.00;;;3.97;;
63110;SDS011;49201;53.426;10.300;2022-07-21T05:52:23;10.27;;;4.40;;
63110;SDS011;49201;53.426;10.300;2022-07-21T05:54:48;7.07;;;4.13;;
63110;SDS011;49201;53.426;10.300;2022-07-21T05:57:14;10.20;;;5.03;;
63110;SDS011;49201;53.426;10.300;2022-07-21T05:59:39;9.23;;;4.73;;
63110;SDS011;49201;53.426;10.300;2022-07-21T06:02:05;11.00;;;4.63;;
63110;SDS011;49201;53.426;10.300;2022-07-21T06:04:31;8.43;;;4.70;;
63110;SDS011;49201;53.426;10.300;2022-07-21T06:06:56;9.60;;;4.73;;
63110;SDS011;49201;53.426;10.300;2022-07-21T06:09:22;8.07;;;4.17;;
63110;SDS011;49201;53.426;10.300;2022-07-21T06:11:47;10.20;;;4.77;;
63110;SDS011;49201;53.426;10.300;2022-07-21T06:14:12;13.47;;;5.87;;
63110;SDS011;49201;53.426;10.300;2022-07-21T06:16:38;12.67;;;5.07;;
63110;SDS011;49201;53.426;10.300;2022-07-21T06:19:04;11.37;;;5.30;;
63110;SDS011;49201;53.426;10.300;2022-07-21T06:21:31;9.73;;;5.10;;
63110;SDS011;49201;53.426;10.300;2022-07-21T06:23:57;10.33;;;5.40;;
63110;SDS011;49201;53.426;10.300;2022-07-21T06:26:23;7.37;;;5.60;;
63110;SDS011;49201;53.426;10.300;2022-07-21T06:28:48;12.57;;;6.10;;
63110;SDS011;49201;53.426;10.300;2022-07-21T06:31:14;11.03;;;5.83;;
63110;SDS011;49201;53.426;10.300;2022-07-21T06:33:39;11.60;;;5.97;;
63110;SDS011;49201;53.426;10.300;2022-07-21T06:36:06;10.77;;;6.13;;
63110;SDS011;49201;53.426;10.300;2022-07-21T06:38:32;11.47;;;6.10;;
63110;SDS011;49201;53.426;10.300;2022-07-21T06:40:57;10.33;;;5.83;;
63110;SDS011;49201;53.426;10.300;2022-07-21T06:43:22;16.40;;;6.47;;
63110;SDS011;49201;53.426;10.300;2022-07-21T06:45:48;12.33;;;6.33;;
63110;SDS011;49201;53.426;10.300;2022-07-21T06:48:13;13.77;;;7.37;;
63110;SDS011;49201;53.426;10.300;2022-07-21T06:50:39;18.27;;;10.20;;
63110;SDS011;49201;53.426;10.300;2022-07-21T06:53:05;21.53;;;10.67;;
63110;SDS011;49201;53.426;10.300;2022-07-21T06:55:31;15.70;;;9.03;;
63110;SDS011;49201;53.426;10.300;2022-07-21T06:57:56;17.57;;;9.07;;
63110;SDS011;49201;53.426;10.300;2022-07-21T07:00:22;14.53;;;7.53;;
63110;SDS011;49201;53.426;10.300;2022-07-21T07:02:47;12.43;;;8.23;;
63110;SDS011;49201;53.426;10.300;2022-07-21T07:05:13;15.33;;;9.23;;
63110;SDS011;49201;53.426;10.300;2022-07-21T07:07:38;13.20;;;9.00;;
63110;SDS011;49201;53.426;10.300;2022-07-21T07:10:04;22.73;;;10.27;;
63110;SDS011;49201;53.426;10.300;2022-07-21T07:12:30;20.37;;;11.27;;
63110;SDS011;49201;53.426;10.300;2022-07-21T07:14:55;17.97;;;10.17;;
63110;SDS011;49201;53.426;10.300;2022-07-21T07:17:21;16.37;;;10.67;;
63110;SDS011;49201;53.426;10.300;2022-07-21T07:19:47;12.57;;;9.83;;
63110;SDS011;49201;53.426;10.300;2022-07-21T07:22:12;15.97;;;11.30;;
63110;SDS011;49201;53.426;10.300;2022-07-21T07:24:39;18.00;;;11.30;;
63110;SDS011;49201;53.426;10.300;2022-07-21T07:27:04;18.50;;;11.37;;
63110;SDS011;49201;53.426;10.300;2022-07-21T07:29:30;24.13;;;12.80;;
63110;SDS011;49201;53.426;10.300;2022-07-21T07:31:56;22.40;;;13.43;;
63110;SDS011;49201;53.426;10.300;2022-07-21T07:34:22;19.73;;;13.90;;
63110;SDS011;49201;53.426;10.300;2022-07-21T07:36:48;21.17;;;13.13;;
63110;SDS011;49201;53.426;10.300;2022-07-21T07:39:14;21.90;;;13.57;;
63110;SDS011;49201;53.426;10.300;2022-07-21T07:41:40;19.63;;;12.10;;
63110;SDS011;49201;53.426;10.300;2022-07-21T07:44:06;20.97;;;12.53;;
63110;SDS011;49201;53.426;10.300;2022-07-21T07:46:32;19.73;;;13.63;;
63110;SDS011;49201;53.426;10.300;2022-07-21T07:48:57;20.30;;;13.43;;
63110;SDS011;49201;53.426;10.300;2022-07-21T07:51:24;19.27;;;12.97;;
63110;SDS011;49201;53.426;10.300;2022-07-21T07:53:50;18.60;;;13.33;;
63110;SDS011;49201;53.426;10.300;2022-07-21T07:56:15;21.03;;;13.53;;
63110;SDS011;49201;53.426;10.300;2022-07-21T07:58:41;17.47;;;12.67;;
63110;SDS011;49201;53.426;10.300;2022-07-21T08:01:06;16.97;;;12.83;;
63110;SDS011;49201;53.426;10.300;2022-07-21T08:03:32;18.50;;;11.90;;
63110;SDS011;49201;53.426;10.300;2022-07-21T08:05:57;18.27;;;13.43;;
63110;SDS011;49201;53.426;10.300;2022-07-21T08:08:27;18.07;;;12.20;;
63110;SDS011;49201;53.426;10.300;2022-07-21T08:10:53;17.73;;;12.10;;
63110;SDS011;49201;53.426;10.300;2022-07-21T08:13:18;17.23;;;12.20;;
63110;SDS011;49201;53.426;10.300;2022-07-21T08:15:45;15.03;;;11.70;;
63110;SDS011;49201;53.426;10.300;2022-07-21T08:18:12;18.67;;;12.10;;
63110;SDS011;49201;53.426;10.300;2022-07-21T08:20:38;18.10;;;12.60;;
63110;SDS011;49201;53.426;10.300;2022-07-21T08:23:04;16.20;;;11.83;;
63110;SDS011;49201;53.426;10.300;2022-07-21T08:25:31;18.17;;;12.40;;
63110;SDS011;49201;53.426;10.300;2022-07-21T08:27:56;19.93;;;13.33;;
63110;SDS011;49201;53.426;10.300;2022-07-21T08:30:22;19.60;;;12.90;;
63110;SDS011;49201;53.426;10.300;2022-07-21T08:32:48;20.50;;;12.20;;
63110;SDS011;49201;53.426;10.300;2022-07-21T08:35:13;18.17;;;12.00;;
63110;SDS011;49201;53.426;10.300;2022-07-21T08:37:39;16.50;;;11.50;;
63110;SDS011;49201;53.426;10.300;2022-07-21T08:40:06;18.90;;;12.80;;
63110;SDS011;49201;53.426;10.300;2022-07-21T08:42:34;19.70;;;12.97;;
63110;SDS011;49201;53.426;10.300;2022-07-21T08:45:00;21.60;;;13.67;;
63110;SDS011;49201;53.426;10.300;2022-07-21T08:47:26;18.40;;;15.07;;
63110;SDS011;49201;53.426;10.300;2022-07-21T08:49:52;20.47;;;13.60;;
63110;SDS011;49201;53.426;10.300;2022-07-21T08:52:19;21.77;;;15.50;;
63110;SDS011;49201;53.426;10.300;2022-07-21T08:54:45;23.87;;;15.30;;
63110;SDS011;49201;53.426;10.300;2022-07-21T08:57:10;20.33;;;14.00;;
63110;SDS011;49201;53.426;10.300;2022-07-21T08:59:36;25.40;;;15.47;;
63110;SDS011;49201;53.426;10.300;2022-07-21T09:02:02;22.77;;;15.13;;
63110;SDS011;49201;53.426;10.300;2022-07-21T09:04:29;22.57;;;16.73;;
63110;SDS011;49201;53.426;10.300;2022-07-21T09:06:58;21.27;;;16.13;;
63110;SDS011;49201;53.426;10.300;2022-07-21T09:09:28;21.87;;;16.93;;
63110;SDS011;49201;53.426;10.300;2022-07-21T09:11:55;25.20;;;16.83;;
63110;SDS011;49201;53.426;10.300;2022-07-21T09:14:22;21.80;;;15.43;;
63110;SDS011;49201;53.426;10.300;2022-07-21T09:16:54;20.53;;;16.87;;
63110;SDS011;49201;53.426;10.300;2022-07-21T09:19:25;23.45;;;16.58;;
63110;SDS011;49201;53.426;10.300;2022-07-21T09:21:53;20.83;;;15.80;;
63110;SDS011;49201;53.426;10.300;2022-07-21T09:24:21;19.93;;;15.53;;
63110;SDS011;49201;53.426;10.300;2022-07-21T09:32:41;18.40;;;15.20;;
63110;SDS011;49201;53.426;10.300;2022-07-21T09:35:07;23.53;;;17.53;;
63110;SDS011;49201;53.426;10.300;2022-07-21T09:37:40;22.97;;;18.53;;
63110;SDS011;49201;53.426;10.300;2022-07-21T09:40:07;22.13;;;19.17;;
63110;SDS011;49201;53.426;10.300;2022-07-21T09:42:38;21.13;;;17.40;;
63110;SDS011;49201;53.426;10.300;2022-07-21T09:45:09;23.83;;;17.60;;
63110;SDS011;49201;53.426;10.300;2022-07-21T09:47:37;21.50;;;17.88;;
63110;SDS011;49201;53.426;10.300;2022-07-21T09:50:04;19.70;;;14.60;;
63110;SDS011;49201;53.426;10.300;2022-07-21T09:52:50;18.48;;;16.23;;
63110;SDS011;49201;53.426;10.300;2022-07-21T09:55:18;19.10;;;16.23;;
63110;SDS011;49201;53.426;10.300;2022-07-21T09:57:44;24.17;;;16.75;;
63110;SDS011;49201;53.426;10.300;2022-07-21T10:00:14;19.55;;;17.08;;
63110;SDS011;49201;53.426;10.300;2022-07-21T10:02:42;18.40;;;16.38;;
63110;SDS011;49201;53.426;10.300;2022-07-21T10:05:10;18.90;;;14.95;;
63110;SDS011;49201;53.426;10.300;2022-07-21T10:07:38;17.00;;;15.25;;
63110;SDS011;49201;53.426;10.300;2022-07-21T10:10:06;16.45;;;14.75;;
63110;SDS011;49201;53.426;10.300;2022-07-21T10:12:33;20.20;;;15.32;;
63110;SDS011;49201;53.426;10.300;2022-07-21T10:14:59;18.08;;;15.60;;
63110;SDS011;49201;53.426;10.300;2022-07-21T10:17:25;15.55;;;13.27;;
63110;SDS011;49201;53.426;10.300;2022-07-21T10:22:25;15.63;;;14.02;;
63110;SDS011;49201;53.426;10.300;2022-07-21T10:24:54;17.02;;;13.40;;
63110;SDS011;49201;53.426;10.300;2022-07-21T10:27:20;17.73;;;13.27;;
63110;SDS011;49201;53.426;10.300;2022-07-21T10:29:59;13.70;;;12.25;;
63110;SDS011;49201;53.426;10.300;2022-07-21T10:32:28;14.88;;;11.90;;
63110;SDS011;49201;53.426;10.300;2022-07-21T10:35:46;14.52;;;13.02;;
63110;SDS011;49201;53.426;10.300;2022-07-21T10:37:51;16.67;;;13.02;;
63110;SDS011;49201;53.426;10.300;2022-07-21T10:42:44;20.05;;;14.45;;
63110;SDS011;49201;53.426;10.300;2022-07-21T10:45:53;19.75;;;14.00;;
63110;SDS011;49201;53.426;10.300;2022-07-21T10:47:59;17.95;;;14.80;;
63110;SDS011;49201;53.426;10.300;2022-07-21T10:50:29;16.65;;;13.93;;
63110;SDS011;49201;53.426;10.300;2022-07-21T10:52:57;14.80;;;12.75;;
63110;SDS011;49201;53.426;10.300;2022-07-21T10:55:25;14.55;;;13.05;;
63110;SDS011;49201;53.426;10.300;2022-07-21T11:01:24;15.98;;;13.55;;
63110;SDS011;49201;53.426;10.300;2022-07-21T11:03:39;15.07;;;10.82;;
63110;SDS011;49201;53.426;10.300;2022-07-21T11:08:41;13.20;;;11.82;;
63110;SDS011;49201;53.426;10.300;2022-07-21T11:21:53;12.38;;;9.60;;
63110;SDS011;49201;53.426;10.300;2022-07-21T11:24:20;9.90;;;8.90;;
63110;SDS011;49201;53.426;10.300;2022-07-21T11:26:58;10.82;;;9.48;;
63110;SDS011;49201;53.426;10.300;2022-07-21T11:29:26;10.68;;;9.60;;
63110;SDS011;49201;53.426;10.300;2022-07-21T11:31:52;10.05;;;8.80;;
63110;SDS011;49201;53.426;10.300;2022-07-21T11:34:18;9.65;;;8.60;;
63110;SDS011;49201;53.426;10.300;2022-07-21T11:36:44;13.15;;;8.70;;
63110;SDS011;49201;53.426;10.300;2022-07-21T11:39:11;12.02;;;8.80;;
63110;SDS011;49201;53.426;10.300;2022-07-21T11:41:39;11.38;;;8.68;;
63110;SDS011;49201;53.426;10.300;2022-07-21T11:44:06;11.63;;;8.85;;
63110;SDS011;49201;53.426;10.300;2022-07-21T11:46:44;11.73;;;8.55;;
63110;SDS011;49201;53.426;10.300;2022-07-21T11:49:11;13.38;;;8.65;;
63110;SDS011;49201;53.426;10.300;2022-07-21T11:51:36;10.20;;;8.38;;
63110;SDS011;49201;53.426;10.300;2022-07-21T11:54:02;10.77;;;8.50;;
63110;SDS011;49201;53.426;10.300;2022-07-21T11:56:28;9.20;;;8.30;;
63110;SDS011;49201;53.426;10.300;2022-07-21T11:59:08;9.10;;;7.97;;
63110;SDS011;49201;53.426;10.300;2022-07-21T12:01:47;10.23;;;8.13;;
63110;SDS011;49201;53.426;10.300;2022-07-21T12:04:14;8.50;;;7.65;;
63110;SDS011;49201;53.426;10.300;2022-07-21T12:06:39;8.35;;;7.55;;
63110;SDS011;49201;53.426;10.300;2022-07-21T12:09:05;8.57;;;6.90;;
63110;SDS011;49201;53.426;10.300;2022-07-21T12:11:36;7.93;;;6.90;;
63110;SDS011;49201;53.426;10.300;2022-07-21T12:14:04;7.78;;;6.60;;
63110;SDS011;49201;53.426;10.300;2022-07-21T12:16:29;8.27;;;6.50;;
63110;SDS011;49201;53.426;10.300;2022-07-21T12:19:11;8.15;;;6.90;;
63110;SDS011;49201;53.426;10.300;2022-07-21T12:21:47;9.80;;;6.45;;
63110;SDS011;49201;53.426;10.300;2022-07-21T12:24:15;8.52;;;6.47;;
63110;SDS011;49201;53.426;10.300;2022-07-21T12:26:41;7.88;;;5.93;;
63110;SDS011;49201;53.426;10.300;2022-07-21T12:29:06;7.68;;;6.20;;
63110;SDS011;49201;53.426;10.300;2022-07-21T12:31:33;7.65;;;6.07;;
63110;SDS011;49201;53.426;10.300;2022-07-21T12:34:09;6.82;;;6.20;;
63110;SDS011;49201;53.426;10.300;2022-07-21T12:36:40;8.27;;;6.43;;
63110;SDS011;49201;53.426;10.300;2022-07-21T12:39:23;7.40;;;6.30;;
63110;SDS011;49201;53.426;10.300;2022-07-21T12:42:10;7.82;;;6.88;;
63110;SDS011;49201;53.426;10.300;2022-07-21T12:44:51;6.20;;;5.57;;
63110;SDS011;49201;53.426;10.300;2022-07-21T12:47:18;6.60;;;5.85;;
63110;SDS011;49201;53.426;10.300;2022-07-21T12:49:53;6.72;;;5.95;;
63110;SDS011;49201;53.426;10.300;2022-07-21T12:52:26;8.25;;;6.22;;
63110;SDS011;49201;53.426;10.300;2022-07-21T12:54:52;6.75;;;4.80;;
63110;SDS011;49201;53.426;10.300;2022-07-21T12:57:19;6.05;;;5.18;;
63110;SDS011;49201;53.426;10.300;2022-07-21T12:59:45;5.30;;;4.80;;
63110;SDS011;49201;53.426;10.300;2022-07-21T13:02:10;5.55;;;5.05;;
63110;SDS011;49201;53.426;10.300;2022-07-21T13:04:36;5.07;;;4.55;;
63110;SDS011;49201;53.426;10.300;2022-07-21T13:07:02;5.22;;;3.92;;
63110;SDS011;49201;53.426;10.300;2022-07-21T13:09:27;5.07;;;4.40;;
63110;SDS011;49201;53.426;10.300;2022-07-21T13:11:52;6.55;;;4.93;;
63110;SDS011;49201;53.426;10.300;2022-07-21T13:14:18;5.40;;;4.90;;
63110;SDS011;49201;53.426;10.300;2022-07-21T13:16:43;5.75;;;5.07;;
63110;SDS011;49201;53.426;10.300;2022-07-21T13:19:09;7.93;;;5.10;;
63110;SDS011;49201;53.426;10.300;2022-07-21T13:21:34;5.95;;;4.75;;
63110;SDS011;49201;53.426;10.300;2022-07-21T13:24:00;5.20;;;4.72;;
63110;SDS011;49201;53.426;10.300;2022-07-21T13:26:25;6.20;;;5.03;;
63110;SDS011;49201;53.426;10.300;2022-07-21T13:28:51;6.80;;;5.72;;
63110;SDS011;49201;53.426;10.300;2022-07-21T13:31:16;8.82;;;6.10;;
63110;SDS011;49201;53.426;10.300;2022-07-21T13:33:42;5.47;;;5.07;;
63110;SDS011;49201;53.426;10.300;2022-07-21T13:36:08;6.03;;;4.85;;
63110;SDS011;49201;53.426;10.300;2022-07-21T13:38:34;8.55;;;5.60;;
63110;SDS011;49201;53.426;10.300;2022-07-21T13:41:00;5.65;;;4.93;;
63110;SDS011;49201;53.426;10.300;2022-07-21T13:43:26;6.97;;;5.45;;
63110;SDS011;49201;53.426;10.300;2022-07-21T13:45:51;8.13;;;5.35;;
63110;SDS011;49201;53.426;10.300;2022-07-21T13:48:17;6.57;;;5.30;;
63110;SDS011;49201;53.426;10.300;2022-07-21T13:50:42;8.10;;;5.50;;
63110;SDS011;49201;53.426;10.300;2022-07-21T13:53:08;9.18;;;5.47;;
63110;SDS011;49201;53.426;10.300;2022-07-21T13:55:34;8.32;;;5.35;;
63110;SDS011;49201;53.426;10.300;2022-07-21T13:57:59;6.47;;;5.88;;
63110;SDS011;49201;53.426;10.300;2022-07-21T14:00:25;5.97;;;4.88;;
63110;SDS011;49201;53.426;10.300;2022-07-21T14:02:51;6.43;;;5.35;;
63110;SDS011;49201;53.426;10.300;2022-07-21T14:05:16;7.25;;;5.53;;
63110;SDS011;49201;53.426;10.300;2022-07-21T14:07:42;5.68;;;4.80;;
63110;SDS011;49201;53.426;10.300;2022-07-21T14:10:08;7.50;;;4.45;;
63110;SDS011;49201;53.426;10.300;2022-07-21T14:12:34;9.10;;;4.75;;
63110;SDS011;49201;53.426;10.300;2022-07-21T14:14:59;5.28;;;4.30;;
63110;SDS011;49201;53.426;10.300;2022-07-21T14:17:25;4.13;;;3.83;;
63110;SDS011;49201;53.426;10.300;2022-07-21T14:19:50;4.53;;;4.13;;
63110;SDS011;49201;53.426;10.300;2022-07-21T14:22:16;4.13;;;3.47;;
63110;SDS011;49201;53.426;10.300;2022-07-21T14:24:43;4.47;;;4.07;;
63110;SDS011;49201;53.426;10.300;2022-07-21T14:27:27;4.53;;;4.03;;
63110;SDS011;49201;53.426;10.300;2022-07-21T14:29:53;4.80;;;4.03;;
63110;SDS011;49201;53.426;10.300;2022-07-21T14:32:19;6.10;;;4.47;;
63110;SDS011;49201;53.426;10.300;2022-07-21T14:34:50;4.00;;;3.60;;
63110;SDS011;49201;53.426;10.300;2022-07-21T14:37:17;3.92;;;3.30;;
63110;SDS011;49201;53.426;10.300;2022-07-21T14:39:46;2.83;;;2.40;;
63110;SDS011;49201;53.426;10.300;2022-07-21T14:42:13;3.20;;;2.75;;
63110;SDS011;49201;53.426;10.300;2022-07-21T14:44:38;2.90;;;2.60;;